sensor_id;sensor_type;location;lat;lon;timestamp;P1;durP1;ratioP1;P2;durP2;ratioP2
19089;SDS011;9677;50.656;13.064;2023-06-14T00:02:21;10.30;;;9.30;;
19089;SDS011;9677;50.656;13.064;2023-06-14T00:04:51;10.20;;;9.20;;
19089;SDS011;9677;50.656;13.064;2023-06-14T00:07:20;10.40;;;9.40;;
19089;SDS011;9677;50.656;13.064;2023-06-14T00:10:01;10.23;;;9.27;;
19089;SDS011;9677;50.656;13.064;2023-06-14T00:12:30;10.20;;;9.20;;
19089;SDS011;9677;50.656;13.064;2023-06-14T00:14:58;10.40;;;9.40;;
19089;SDS011;9677;50.656;13.064;2023-06-14T00:17:27;10.80;;;9.70;;
19089;SDS011;9677;50.656;13.064;2023-06-14T00:19:59;10.80;;;9.70;;
19089;SDS011;9677;50.656;13.064;2023-06-14T00:22:31;10.67;;;9.63;;
19089;SDS011;9677;50.656;13.064;2023-06-14T00:24:59;10.30;;;9.30;;
19089;SDS011;9677;50.656;13.064;2023-06-14T00:27:47;10.27;;;9.27;;
19089;SDS011;9677;50.656;13.064;2023-06-14T00:30:16;10.40;;;9.40;;
19089;SDS011;9677;50.656;13.064;2023-06-14T00:32:45;10.30;;;9.40;;
19089;SDS011;9677;50.656;13.064;2023-06-14T00:35:15;10.20;;;9.20;;
19089;SDS011;9677;50.656;13.064;2023-06-14T00:37:43;10.80;;;9.70;;
19089;SDS011;9677;50.656;13.064;2023-06-14T00:40:11;10.03;;;9.03;;
19089;SDS011;9677;50.656;13.064;2023-06-14T00:42:40;10.23;;;9.23;;
19089;SDS011;9677;50.656;13.064;2023-06-14T00:45:09;10.40;;;9.40;;
19089;SDS011;9677;50.656;13.064;2023-06-14T00:47:38;10.50;;;9.50;;
19089;SDS011;9677;50.656;13.064;2023-06-14T00:50:09;11.17;;;10.07;;
19089;SDS011;9677;50.656;13.064;2023-06-14T00:52:39;10.40;;;9.40;;
19089;SDS011;9677;50.656;13.064;2023-06-14T00:55:07;10.23;;;9.23;;
19089;SDS011;9677;50.656;13.064;2023-06-14T00:57:36;10.67;;;9.67;;
19089;SDS011;9677;50.656;13.064;2023-06-14T01:00:06;10.40;;;9.40;;
19089;SDS011;9677;50.656;13.064;2023-06-14T01:02:36;10.30;;;9.30;;
19089;SDS011;9677;50.656;13.064;2023-06-14T01:05:08;10.03;;;9.13;;
19089;SDS011;9677;50.656;13.064;2023-06-14T01:07:43;10.10;;;9.20;;
19089;SDS011;9677;50.656;13.064;2023-06-14T01:10:35;9.97;;;9.03;;
19089;SDS011;9677;50.656;13.064;2023-06-14T01:13:10;9.90;;;9.00;;
19089;SDS011;9677;50.656;13.064;2023-06-14T01:15:47;10.43;;;9.43;;
19089;SDS011;9677;50.656;13.064;2023-06-14T01:18:15;10.00;;;9.10;;
19089;SDS011;9677;50.656;13.064;2023-06-14T01:20:45;10.40;;;9.40;;
19089;SDS011;9677;50.656;13.064;2023-06-14T01:23:18;10.40;;;9.40;;
19089;SDS011;9677;50.656;13.064;2023-06-14T01:25:47;10.43;;;9.43;;
19089;SDS011;9677;50.656;13.064;2023-06-14T01:28:19;10.30;;;9.40;;
19089;SDS011;9677;50.656;13.064;2023-06-14T01:30:49;10.67;;;9.67;;
19089;SDS011;9677;50.656;13.064;2023-06-14T01:33:20;10.33;;;9.43;;
19089;SDS011;9677;50.656;13.064;2023-06-14T01:35:50;10.30;;;9.30;;
19089;SDS011;9677;50.656;13.064;2023-06-14T01:38:21;10.33;;;9.23;;
19089;SDS011;9677;50.656;13.064;2023-06-14T01:40:53;10.80;;;9.80;;
19089;SDS011;9677;50.656;13.064;2023-06-14T01:43:24;10.50;;;9.50;;
19089;SDS011;9677;50.656;13.064;2023-06-14T01:45:54;10.50;;;9.50;;
19089;SDS011;9677;50.656;13.064;2023-06-14T01:48:26;10.40;;;9.43;;
19089;SDS011;9677;50.656;13.064;2023-06-14T01:50:54;10.83;;;9.70;;
19089;SDS011;9677;50.656;13.064;2023-06-14T01:53:23;11.57;;;10.37;;
19089;SDS011;9677;50.656;13.064;2023-06-14T01:55:51;10.50;;;9.50;;
19089;SDS011;9677;50.656;13.064;2023-06-14T01:58:20;10.70;;;9.70;;
19089;SDS011;9677;50.656;13.064;2023-06-14T02:00:50;10.63;;;9.63;;
19089;SDS011;9677;50.656;13.064;2023-06-14T02:03:21;10.97;;;9.87;;
19089;SDS011;9677;50.656;13.064;2023-06-14T02:05:51;10.60;;;9.60;;
19089;SDS011;9677;50.656;13.064;2023-06-14T02:08:21;10.47;;;9.47;;
19089;SDS011;9677;50.656;13.064;2023-06-14T02:10:50;10.00;;;9.10;;
19089;SDS011;9677;50.656;13.064;2023-06-14T02:13:20;10.83;;;9.83;;
19089;SDS011;9677;50.656;13.064;2023-06-14T02:15:49;11.00;;;9.97;;
19089;SDS011;9677;50.656;13.064;2023-06-14T02:18:21;9.90;;;9.00;;
19089;SDS011;9677;50.656;13.064;2023-06-14T02:20:50;10.27;;;9.27;;
19089;SDS011;9677;50.656;13.064;2023-06-14T02:23:18;10.60;;;9.60;;
19089;SDS011;9677;50.656;13.064;2023-06-14T02:25:46;10.57;;;9.57;;
19089;SDS011;9677;50.656;13.064;2023-06-14T02:28:16;10.50;;;9.50;;
19089;SDS011;9677;50.656;13.064;2023-06-14T02:30:44;10.33;;;9.40;;
19089;SDS011;9677;50.656;13.064;2023-06-14T02:33:12;10.87;;;9.87;;
19089;SDS011;9677;50.656;13.064;2023-06-14T02:35:40;10.30;;;9.30;;
19089;SDS011;9677;50.656;13.064;2023-06-14T02:38:08;10.33;;;9.33;;
19089;SDS011;9677;50.656;13.064;2023-06-14T02:40:36;10.50;;;9.60;;
19089;SDS011;9677;50.656;13.064;2023-06-14T02:43:04;10.77;;;9.77;;
19089;SDS011;9677;50.656;13.064;2023-06-14T02:45:33;10.30;;;9.30;;
19089;SDS011;9677;50.656;13.064;2023-06-14T02:48:01;10.50;;;9.50;;
19089;SDS011;9677;50.656;13.064;2023-06-14T02:50:32;10.50;;;9.50;;
19089;SDS011;9677;50.656;13.064;2023-06-14T02:53:00;10.67;;;9.60;;
19089;SDS011;9677;50.656;13.064;2023-06-14T02:55:29;10.70;;;9.67;;
19089;SDS011;9677;50.656;13.064;2023-06-14T02:57:57;10.60;;;9.60;;
19089;SDS011;9677;50.656;13.064;2023-06-14T03:00:25;10.27;;;9.37;;
19089;SDS011;9677;50.656;13.064;2023-06-14T03:02:57;10.57;;;9.57;;
19089;SDS011;9677;50.656;13.064;2023-06-14T03:05:28;10.57;;;9.60;;
19089;SDS011;9677;50.656;13.064;2023-06-14T03:07:56;10.30;;;9.30;;
19089;SDS011;9677;50.656;13.064;2023-06-14T03:10:24;10.43;;;9.53;;
19089;SDS011;9677;50.656;13.064;2023-06-14T03:12:57;10.40;;;9.40;;
19089;SDS011;9677;50.656;13.064;2023-06-14T03:15:25;10.67;;;9.67;;
19089;SDS011;9677;50.656;13.064;2023-06-14T03:17:54;10.90;;;9.90;;
19089;SDS011;9677;50.656;13.064;2023-06-14T03:20:23;11.00;;;10.00;;
19089;SDS011;9677;50.656;13.064;2023-06-14T03:22:56;11.20;;;10.00;;
19089;SDS011;9677;50.656;13.064;2023-06-14T03:25:24;10.93;;;9.90;;
19089;SDS011;9677;50.656;13.064;2023-06-14T03:27:56;10.50;;;9.50;;
19089;SDS011;9677;50.656;13.064;2023-06-14T03:30:24;11.30;;;10.30;;
19089;SDS011;9677;50.656;13.064;2023-06-14T03:32:52;11.27;;;10.27;;
19089;SDS011;9677;50.656;13.064;2023-06-14T03:35:25;11.30;;;10.20;;
19089;SDS011;9677;50.656;13.064;2023-06-14T03:37:53;10.90;;;9.83;;
19089;SDS011;9677;50.656;13.064;2023-06-14T03:40:21;10.50;;;9.50;;
19089;SDS011;9677;50.656;13.064;2023-06-14T03:42:59;10.40;;;9.50;;
19089;SDS011;9677;50.656;13.064;2023-06-14T03:45:27;11.10;;;10.00;;
19089;SDS011;9677;50.656;13.064;2023-06-14T03:47:56;10.67;;;9.57;;
19089;SDS011;9677;50.656;13.064;2023-06-14T03:50:27;10.60;;;9.67;;
19089;SDS011;9677;50.656;13.064;2023-06-14T03:52:55;10.70;;;9.70;;
19089;SDS011;9677;50.656;13.064;2023-06-14T03:55:23;10.70;;;9.70;;
19089;SDS011;9677;50.656;13.064;2023-06-14T03:57:58;10.90;;;9.90;;
19089;SDS011;9677;50.656;13.064;2023-06-14T04:00:27;10.80;;;9.80;;
19089;SDS011;9677;50.656;13.064;2023-06-14T04:02:55;11.20;;;10.10;;
19089;SDS011;9677;50.656;13.064;2023-06-14T04:05:23;11.33;;;10.23;;
19089;SDS011;9677;50.656;13.064;2023-06-14T04:07:55;11.03;;;9.93;;
19089;SDS011;9677;50.656;13.064;2023-06-14T04:10:23;11.20;;;10.10;;
19089;SDS011;9677;50.656;13.064;2023-06-14T04:12:52;11.37;;;10.27;;
19089;SDS011;9677;50.656;13.064;2023-06-14T04:15:21;10.93;;;9.93;;
19089;SDS011;9677;50.656;13.064;2023-06-14T04:17:52;11.37;;;10.27;;
19089;SDS011;9677;50.656;13.064;2023-06-14T04:20:24;11.00;;;9.90;;
19089;SDS011;9677;50.656;13.064;2023-06-14T04:22:52;11.60;;;10.40;;
19089;SDS011;9677;50.656;13.064;2023-06-14T04:25:24;10.80;;;9.80;;
19089;SDS011;9677;50.656;13.064;2023-06-14T04:27:55;10.70;;;9.70;;
19089;SDS011;9677;50.656;13.064;2023-06-14T04:30:23;10.90;;;9.90;;
19089;SDS011;9677;50.656;13.064;2023-06-14T04:32:53;11.63;;;10.53;;
19089;SDS011;9677;50.656;13.064;2023-06-14T04:35:22;11.70;;;10.30;;
19089;SDS011;9677;50.656;13.064;2023-06-14T04:37:52;11.20;;;10.10;;
19089;SDS011;9677;50.656;13.064;2023-06-14T04:40:21;11.23;;;10.13;;
19089;SDS011;9677;50.656;13.064;2023-06-14T04:42:50;11.30;;;10.20;;
19089;SDS011;9677;50.656;13.064;2023-06-14T04:45:19;11.73;;;10.63;;
19089;SDS011;9677;50.656;13.064;2023-06-14T04:47:49;10.97;;;9.83;;
19089;SDS011;9677;50.656;13.064;2023-06-14T04:50:22;11.43;;;10.30;;
19089;SDS011;9677;50.656;13.064;2023-06-14T04:52:50;10.97;;;9.87;;
19089;SDS011;9677;50.656;13.064;2023-06-14T04:55:20;11.10;;;10.00;;
19089;SDS011;9677;50.656;13.064;2023-06-14T04:57:48;10.60;;;9.70;;
19089;SDS011;9677;50.656;13.064;2023-06-14T05:00:21;11.20;;;10.10;;
19089;SDS011;9677;50.656;13.064;2023-06-14T05:02:49;10.87;;;9.87;;
19089;SDS011;9677;50.656;13.064;2023-06-14T05:05:20;15.43;;;10.33;;
19089;SDS011;9677;50.656;13.064;2023-06-14T05:07:48;11.33;;;10.23;;
19089;SDS011;9677;50.656;13.064;2023-06-14T05:10:16;10.90;;;9.90;;
19089;SDS011;9677;50.656;13.064;2023-06-14T05:12:45;10.93;;;9.93;;
19089;SDS011;9677;50.656;13.064;2023-06-14T05:15:16;11.93;;;10.10;;
19089;SDS011;9677;50.656;13.064;2023-06-14T05:17:46;11.17;;;10.07;;
19089;SDS011;9677;50.656;13.064;2023-06-14T05:20:19;10.97;;;9.87;;
19089;SDS011;9677;50.656;13.064;2023-06-14T05:22:49;11.03;;;9.93;;
19089;SDS011;9677;50.656;13.064;2023-06-14T05:25:18;10.87;;;9.87;;
19089;SDS011;9677;50.656;13.064;2023-06-14T05:27:47;10.80;;;9.80;;
19089;SDS011;9677;50.656;13.064;2023-06-14T05:30:15;11.67;;;10.50;;
19089;SDS011;9677;50.656;13.064;2023-06-14T05:32:46;10.87;;;9.73;;
19089;SDS011;9677;50.656;13.064;2023-06-14T05:35:14;10.80;;;9.70;;
19089;SDS011;9677;50.656;13.064;2023-06-14T05:37:43;10.73;;;9.73;;
19089;SDS011;9677;50.656;13.064;2023-06-14T05:40:11;10.87;;;9.87;;
19089;SDS011;9677;50.656;13.064;2023-06-14T05:42:39;11.40;;;10.30;;
19089;SDS011;9677;50.656;13.064;2023-06-14T05:45:08;10.70;;;9.70;;
19089;SDS011;9677;50.656;13.064;2023-06-14T05:47:36;10.73;;;9.73;;
19089;SDS011;9677;50.656;13.064;2023-06-14T05:50:06;10.90;;;9.80;;
19089;SDS011;9677;50.656;13.064;2023-06-14T05:52:35;11.00;;;10.00;;
19089;SDS011;9677;50.656;13.064;2023-06-14T05:55:03;10.50;;;9.50;;
19089;SDS011;9677;50.656;13.064;2023-06-14T05:57:32;10.80;;;9.80;;
19089;SDS011;9677;50.656;13.064;2023-06-14T06:00:00;10.90;;;9.90;;
19089;SDS011;9677;50.656;13.064;2023-06-14T06:02:37;10.87;;;9.77;;
19089;SDS011;9677;50.656;13.064;2023-06-14T06:05:07;10.70;;;9.70;;
19089;SDS011;9677;50.656;13.064;2023-06-14T06:07:35;10.80;;;9.70;;
19089;SDS011;9677;50.656;13.064;2023-06-14T06:10:04;10.87;;;9.87;;
19089;SDS011;9677;50.656;13.064;2023-06-14T06:12:33;11.87;;;9.90;;
19089;SDS011;9677;50.656;13.064;2023-06-14T06:15:01;10.50;;;9.50;;
19089;SDS011;9677;50.656;13.064;2023-06-14T06:17:30;10.50;;;9.53;;
19089;SDS011;9677;50.656;13.064;2023-06-14T06:20:20;10.53;;;9.53;;
19089;SDS011;9677;50.656;13.064;2023-06-14T06:22:54;10.43;;;9.40;;
19089;SDS011;9677;50.656;13.064;2023-06-14T06:25:22;11.07;;;9.97;;
19089;SDS011;9677;50.656;13.064;2023-06-14T06:27:52;10.90;;;9.80;;
19089;SDS011;9677;50.656;13.064;2023-06-14T06:30:22;10.80;;;9.80;;
19089;SDS011;9677;50.656;13.064;2023-06-14T06:32:50;10.00;;;9.10;;
19089;SDS011;9677;50.656;13.064;2023-06-14T06:35:21;10.70;;;9.70;;
19089;SDS011;9677;50.656;13.064;2023-06-14T06:37:49;10.60;;;9.60;;
19089;SDS011;9677;50.656;13.064;2023-06-14T06:40:17;10.00;;;9.10;;
19089;SDS011;9677;50.656;13.064;2023-06-14T06:42:45;10.40;;;9.40;;
19089;SDS011;9677;50.656;13.064;2023-06-14T06:45:14;11.23;;;10.13;;
19089;SDS011;9677;50.656;13.064;2023-06-14T06:47:43;10.70;;;9.60;;
19089;SDS011;9677;50.656;13.064;2023-06-14T06:50:11;10.30;;;9.30;;
19089;SDS011;9677;50.656;13.064;2023-06-14T06:52:40;10.73;;;9.63;;
19089;SDS011;9677;50.656;13.064;2023-06-14T06:55:08;10.53;;;9.53;;
19089;SDS011;9677;50.656;13.064;2023-06-14T06:57:38;10.50;;;9.50;;
19089;SDS011;9677;50.656;13.064;2023-06-14T07:00:06;10.27;;;9.27;;
19089;SDS011;9677;50.656;13.064;2023-06-14T07:02:36;10.60;;;9.60;;
19089;SDS011;9677;50.656;13.064;2023-06-14T07:05:04;10.53;;;9.43;;
19089;SDS011;9677;50.656;13.064;2023-06-14T07:07:33;10.17;;;9.20;;
19089;SDS011;9677;50.656;13.064;2023-06-14T07:10:03;10.37;;;9.37;;
19089;SDS011;9677;50.656;13.064;2023-06-14T07:12:32;10.20;;;9.30;;
19089;SDS011;9677;50.656;13.064;2023-06-14T07:15:06;10.00;;;9.10;;
19089;SDS011;9677;50.656;13.064;2023-06-14T07:17:35;10.43;;;9.40;;
19089;SDS011;9677;50.656;13.064;2023-06-14T07:20:04;10.50;;;9.50;;
19089;SDS011;9677;50.656;13.064;2023-06-14T07:22:39;10.53;;;9.33;;
19089;SDS011;9677;50.656;13.064;2023-06-14T07:25:10;9.90;;;9.00;;
19089;SDS011;9677;50.656;13.064;2023-06-14T07:27:40;9.87;;;8.97;;
19089;SDS011;9677;50.656;13.064;2023-06-14T07:30:09;10.10;;;9.10;;
19089;SDS011;9677;50.656;13.064;2023-06-14T07:32:38;10.00;;;9.10;;
19089;SDS011;9677;50.656;13.064;2023-06-14T07:35:07;9.83;;;8.93;;
19089;SDS011;9677;50.656;13.064;2023-06-14T07:37:35;9.93;;;9.00;;
19089;SDS011;9677;50.656;13.064;2023-06-14T07:40:04;10.60;;;8.93;;
19089;SDS011;9677;50.656;13.064;2023-06-14T07:42:35;9.73;;;8.70;;
19089;SDS011;9677;50.656;13.064;2023-06-14T07:45:04;9.63;;;8.73;;
19089;SDS011;9677;50.656;13.064;2023-06-14T07:47:33;9.97;;;8.97;;
19089;SDS011;9677;50.656;13.064;2023-06-14T07:50:02;9.80;;;8.90;;
19089;SDS011;9677;50.656;13.064;2023-06-14T07:52:32;9.60;;;8.70;;
19089;SDS011;9677;50.656;13.064;2023-06-14T07:55:00;9.33;;;8.50;;
19089;SDS011;9677;50.656;13.064;2023-06-14T07:57:28;9.47;;;8.57;;
19089;SDS011;9677;50.656;13.064;2023-06-14T07:59:57;9.63;;;8.73;;
19089;SDS011;9677;50.656;13.064;2023-06-14T08:02:25;10.30;;;8.60;;
19089;SDS011;9677;50.656;13.064;2023-06-14T08:04:54;9.53;;;8.63;;
19089;SDS011;9677;50.656;13.064;2023-06-14T08:07:22;9.70;;;8.70;;
19089;SDS011;9677;50.656;13.064;2023-06-14T08:09:50;9.57;;;8.63;;
19089;SDS011;9677;50.656;13.064;2023-06-14T08:12:18;9.13;;;8.33;;
19089;SDS011;9677;50.656;13.064;2023-06-14T08:14:46;9.60;;;8.70;;
19089;SDS011;9677;50.656;13.064;2023-06-14T08:17:28;9.30;;;8.43;;
19089;SDS011;9677;50.656;13.064;2023-06-14T08:19:56;9.27;;;8.40;;
19089;SDS011;9677;50.656;13.064;2023-06-14T08:22:24;9.70;;;8.70;;
19089;SDS011;9677;50.656;13.064;2023-06-14T08:24:54;9.40;;;8.50;;
19089;SDS011;9677;50.656;13.064;2023-06-14T08:27:22;9.53;;;8.63;;
19089;SDS011;9677;50.656;13.064;2023-06-14T08:29:50;9.60;;;8.70;;
19089;SDS011;9677;50.656;13.064;2023-06-14T08:32:18;9.27;;;8.40;;
19089;SDS011;9677;50.656;13.064;2023-06-14T08:34:47;9.20;;;8.40;;
19089;SDS011;9677;50.656;13.064;2023-06-14T08:37:30;9.20;;;8.40;;
19089;SDS011;9677;50.656;13.064;2023-06-14T08:39:59;9.67;;;8.67;;
19089;SDS011;9677;50.656;13.064;2023-06-14T08:42:32;9.40;;;8.50;;
19089;SDS011;9677;50.656;13.064;2023-06-14T08:45:02;9.40;;;8.50;;
19089;SDS011;9677;50.656;13.064;2023-06-14T08:47:31;9.10;;;8.30;;
19089;SDS011;9677;50.656;13.064;2023-06-14T08:50:09;9.70;;;8.80;;
19089;SDS011;9677;50.656;13.064;2023-06-14T08:52:54;9.57;;;8.63;;
19089;SDS011;9677;50.656;13.064;2023-06-14T08:55:27;9.10;;;8.30;;
19089;SDS011;9677;50.656;13.064;2023-06-14T08:57:59;9.33;;;8.43;;
19089;SDS011;9677;50.656;13.064;2023-06-14T09:00:30;9.50;;;8.60;;
19089;SDS011;9677;50.656;13.064;2023-06-14T09:03:00;9.40;;;8.50;;
19089;SDS011;9677;50.656;13.064;2023-06-14T09:05:31;9.73;;;8.67;;
19089;SDS011;9677;50.656;13.064;2023-06-14T09:07:59;9.43;;;8.53;;
19089;SDS011;9677;50.656;13.064;2023-06-14T09:10:32;9.30;;;8.50;;
19089;SDS011;9677;50.656;13.064;2023-06-14T09:13:01;9.23;;;8.30;;
19089;SDS011;9677;50.656;13.064;2023-06-14T09:15:30;9.50;;;8.60;;
19089;SDS011;9677;50.656;13.064;2023-06-14T09:17:59;8.90;;;8.13;;
19089;SDS011;9677;50.656;13.064;2023-06-14T09:20:31;10.50;;;8.40;;
19089;SDS011;9677;50.656;13.064;2023-06-14T09:23:00;9.53;;;8.63;;
19089;SDS011;9677;50.656;13.064;2023-06-14T09:25:28;9.13;;;8.23;;
19089;SDS011;9677;50.656;13.064;2023-06-14T09:28:06;9.40;;;8.60;;
19089;SDS011;9677;50.656;13.064;2023-06-14T09:30:36;9.33;;;8.43;;
19089;SDS011;9677;50.656;13.064;2023-06-14T09:33:04;9.30;;;8.40;;
19089;SDS011;9677;50.656;13.064;2023-06-14T09:35:34;9.40;;;8.50;;
19089;SDS011;9677;50.656;13.064;2023-06-14T09:38:03;9.40;;;8.50;;
19089;SDS011;9677;50.656;13.064;2023-06-14T09:40:34;9.50;;;8.60;;
19089;SDS011;9677;50.656;13.064;2023-06-14T09:43:06;9.37;;;8.47;;
19089;SDS011;9677;50.656;13.064;2023-06-14T09:45:36;9.13;;;8.23;;
19089;SDS011;9677;50.656;13.064;2023-06-14T09:48:07;8.83;;;8.03;;
19089;SDS011;9677;50.656;13.064;2023-06-14T09:50:37;9.00;;;8.20;;
19089;SDS011;9677;50.656;13.064;2023-06-14T09:53:07;9.17;;;8.30;;
19089;SDS011;9677;50.656;13.064;2023-06-14T09:55:38;9.27;;;8.37;;
19089;SDS011;9677;50.656;13.064;2023-06-14T09:58:09;9.63;;;8.73;;
19089;SDS011;9677;50.656;13.064;2023-06-14T10:00:39;12.00;;;8.40;;
19089;SDS011;9677;50.656;13.064;2023-06-14T10:03:13;8.80;;;8.00;;
19089;SDS011;9677;50.656;13.064;2023-06-14T10:05:50;8.90;;;8.10;;
19089;SDS011;9677;50.656;13.064;2023-06-14T10:08:19;8.80;;;8.00;;
19089;SDS011;9677;50.656;13.064;2023-06-14T10:10:52;8.90;;;8.10;;
19089;SDS011;9677;50.656;13.064;2023-06-14T10:13:22;9.10;;;8.30;;
19089;SDS011;9677;50.656;13.064;2023-06-14T10:15:52;9.13;;;8.33;;
19089;SDS011;9677;50.656;13.064;2023-06-14T10:18:30;9.20;;;8.30;;
19089;SDS011;9677;50.656;13.064;2023-06-14T10:21:08;9.20;;;8.30;;
19089;SDS011;9677;50.656;13.064;2023-06-14T10:23:44;9.00;;;8.10;;
19089;SDS011;9677;50.656;13.064;2023-06-14T10:26:20;9.17;;;8.27;;
19089;SDS011;9677;50.656;13.064;2023-06-14T10:28:56;8.83;;;8.03;;
19089;SDS011;9677;50.656;13.064;2023-06-14T10:34:20;8.93;;;8.13;;
19089;SDS011;9677;50.656;13.064;2023-06-14T10:37:01;9.30;;;8.47;;
19089;SDS011;9677;50.656;13.064;2023-06-14T10:39:31;9.10;;;8.30;;
19089;SDS011;9677;50.656;13.064;2023-06-14T10:42:05;10.13;;;8.73;;
19089;SDS011;9677;50.656;13.064;2023-06-14T10:44:38;9.10;;;8.30;;
19089;SDS011;9677;50.656;13.064;2023-06-14T10:47:08;9.23;;;8.33;;
19089;SDS011;9677;50.656;13.064;2023-06-14T10:49:41;9.00;;;8.20;;
19089;SDS011;9677;50.656;13.064;2023-06-14T10:52:13;9.50;;;8.60;;
19089;SDS011;9677;50.656;13.064;2023-06-14T10:54:55;8.83;;;8.03;;
19089;SDS011;9677;50.656;13.064;2023-06-14T10:57:32;8.90;;;8.10;;
19089;SDS011;9677;50.656;13.064;2023-06-14T11:00:16;9.40;;;8.50;;
19089;SDS011;9677;50.656;13.064;2023-06-14T11:02:51;9.03;;;8.23;;
19089;SDS011;9677;50.656;13.064;2023-06-14T11:05:50;9.30;;;8.30;;
19089;SDS011;9677;50.656;13.064;2023-06-14T11:11:47;8.60;;;7.90;;
19089;SDS011;9677;50.656;13.064;2023-06-14T11:14:16;9.17;;;8.37;;
19089;SDS011;9677;50.656;13.064;2023-06-14T11:16:47;9.37;;;8.47;;
19089;SDS011;9677;50.656;13.064;2023-06-14T11:19:16;9.70;;;8.80;;
19089;SDS011;9677;50.656;13.064;2023-06-14T11:21:46;12.73;;;8.50;;
19089;SDS011;9677;50.656;13.064;2023-06-14T11:24:16;9.13;;;8.33;;
19089;SDS011;9677;50.656;13.064;2023-06-14T11:26:46;9.40;;;8.50;;
19089;SDS011;9677;50.656;13.064;2023-06-14T11:29:15;9.37;;;8.47;;
19089;SDS011;9677;50.656;13.064;2023-06-14T11:31:44;8.80;;;8.00;;
19089;SDS011;9677;50.656;13.064;2023-06-14T11:34:13;9.17;;;8.37;;
19089;SDS011;9677;50.656;13.064;2023-06-14T11:36:41;9.13;;;8.33;;
19089;SDS011;9677;50.656;13.064;2023-06-14T11:39:09;9.00;;;8.17;;
19089;SDS011;9677;50.656;13.064;2023-06-14T11:41:40;8.90;;;8.10;;
19089;SDS011;9677;50.656;13.064;2023-06-14T11:44:09;9.10;;;8.20;;
19089;SDS011;9677;50.656;13.064;2023-06-14T11:46:38;9.10;;;8.30;;
19089;SDS011;9677;50.656;13.064;2023-06-14T11:49:07;8.90;;;8.10;;
19089;SDS011;9677;50.656;13.064;2023-06-14T11:51:36;9.20;;;8.30;;
19089;SDS011;9677;50.656;13.064;2023-06-14T11:54:05;8.90;;;8.10;;
19089;SDS011;9677;50.656;13.064;2023-06-14T11:56:36;9.00;;;8.20;;
19089;SDS011;9677;50.656;13.064;2023-06-14T11:59:06;9.30;;;8.50;;
19089;SDS011;9677;50.656;13.064;2023-06-14T12:01:37;9.10;;;8.30;;
19089;SDS011;9677;50.656;13.064;2023-06-14T12:04:06;9.00;;;8.20;;
19089;SDS011;9677;50.656;13.064;2023-06-14T12:06:35;9.53;;;8.47;;
19089;SDS011;9677;50.656;13.064;2023-06-14T12:09:06;9.10;;;8.30;;
19089;SDS011;9677;50.656;13.064;2023-06-14T12:11:39;8.97;;;8.17;;
19089;SDS011;9677;50.656;13.064;2023-06-14T12:14:09;8.90;;;8.10;;
19089;SDS011;9677;50.656;13.064;2023-06-14T12:16:38;8.90;;;8.10;;
19089;SDS011;9677;50.656;13.064;2023-06-14T12:19:08;8.70;;;7.90;;
19089;SDS011;9677;50.656;13.064;2023-06-14T12:21:41;8.90;;;8.10;;
19089;SDS011;9677;50.656;13.064;2023-06-14T12:24:11;8.70;;;7.97;;
19089;SDS011;9677;50.656;13.064;2023-06-14T12:26:40;8.90;;;8.10;;
19089;SDS011;9677;50.656;13.064;2023-06-14T12:29:10;8.83;;;8.10;;
19089;SDS011;9677;50.656;13.064;2023-06-14T12:31:40;8.90;;;8.10;;
19089;SDS011;9677;50.656;13.064;2023-06-14T12:34:09;8.63;;;7.90;;
19089;SDS011;9677;50.656;13.064;2023-06-14T12:36:37;8.40;;;7.70;;
19089;SDS011;9677;50.656;13.064;2023-06-14T12:39:10;9.10;;;8.20;;
19089;SDS011;9677;50.656;13.064;2023-06-14T12:41:38;10.00;;;8.13;;
19089;SDS011;9677;50.656;13.064;2023-06-14T12:44:07;8.70;;;7.90;;
19089;SDS011;9677;50.656;13.064;2023-06-14T12:46:37;8.90;;;8.10;;
19089;SDS011;9677;50.656;13.064;2023-06-14T12:49:07;8.80;;;8.00;;
19089;SDS011;9677;50.656;13.064;2023-06-14T12:51:36;9.30;;;8.50;;
19089;SDS011;9677;50.656;13.064;2023-06-14T12:54:04;8.70;;;7.90;;
19089;SDS011;9677;50.656;13.064;2023-06-14T12:56:32;9.30;;;8.27;;
19089;SDS011;9677;50.656;13.064;2023-06-14T12:59:00;9.00;;;8.20;;
19089;SDS011;9677;50.656;13.064;2023-06-14T13:01:28;8.80;;;8.00;;
19089;SDS011;9677;50.656;13.064;2023-06-14T13:03:58;9.80;;;8.80;;
19089;SDS011;9677;50.656;13.064;2023-06-14T13:06:26;9.50;;;8.60;;
19089;SDS011;9677;50.656;13.064;2023-06-14T13:08:55;9.40;;;8.50;;
19089;SDS011;9677;50.656;13.064;2023-06-14T13:11:25;9.30;;;8.40;;
19089;SDS011;9677;50.656;13.064;2023-06-14T13:13:53;9.60;;;8.70;;
19089;SDS011;9677;50.656;13.064;2023-06-14T13:16:21;9.33;;;8.47;;
19089;SDS011;9677;50.656;13.064;2023-06-14T13:18:49;9.20;;;8.30;;
19089;SDS011;9677;50.656;13.064;2023-06-14T13:21:18;9.20;;;8.30;;
19089;SDS011;9677;50.656;13.064;2023-06-14T13:23:47;9.30;;;8.40;;
19089;SDS011;9677;50.656;13.064;2023-06-14T13:26:15;9.60;;;8.60;;
19089;SDS011;9677;50.656;13.064;2023-06-14T13:28:44;9.20;;;8.33;;
19089;SDS011;9677;50.656;13.064;2023-06-14T13:31:12;8.80;;;8.00;;
19089;SDS011;9677;50.656;13.064;2023-06-14T13:33:41;9.13;;;8.33;;
19089;SDS011;9677;50.656;13.064;2023-06-14T13:36:09;9.13;;;8.23;;
19089;SDS011;9677;50.656;13.064;2023-06-14T13:38:38;9.00;;;8.20;;
19089;SDS011;9677;50.656;13.064;2023-06-14T13:41:06;9.00;;;8.20;;
19089;SDS011;9677;50.656;13.064;2023-06-14T13:43:34;9.07;;;8.17;;
19089;SDS011;9677;50.656;13.064;2023-06-14T13:46:02;8.93;;;8.13;;
19089;SDS011;9677;50.656;13.064;2023-06-14T13:48:31;8.83;;;8.00;;
19089;SDS011;9677;50.656;13.064;2023-06-14T13:50:59;9.43;;;8.53;;
19089;SDS011;9677;50.656;13.064;2023-06-14T13:53:30;9.00;;;8.20;;
19089;SDS011;9677;50.656;13.064;2023-06-14T13:55:59;8.70;;;7.90;;
19089;SDS011;9677;50.656;13.064;2023-06-14T13:58:27;8.90;;;8.10;;
19089;SDS011;9677;50.656;13.064;2023-06-14T14:00:55;8.80;;;8.00;;
19089;SDS011;9677;50.656;13.064;2023-06-14T14:03:26;9.17;;;8.30;;
19089;SDS011;9677;50.656;13.064;2023-06-14T14:05:54;9.10;;;8.20;;
19089;SDS011;9677;50.656;13.064;2023-06-14T14:08:22;9.20;;;8.40;;
19089;SDS011;9677;50.656;13.064;2023-06-14T14:10:51;9.23;;;8.33;;
19089;SDS011;9677;50.656;13.064;2023-06-14T14:13:20;8.80;;;8.00;;
19089;SDS011;9677;50.656;13.064;2023-06-14T14:15:48;8.80;;;8.00;;
19089;SDS011;9677;50.656;13.064;2023-06-14T14:18:17;9.27;;;8.37;;
19089;SDS011;9677;50.656;13.064;2023-06-14T14:20:47;8.90;;;8.10;;
19089;SDS011;9677;50.656;13.064;2023-06-14T14:23:15;8.90;;;8.10;;
19089;SDS011;9677;50.656;13.064;2023-06-14T14:25:43;9.00;;;8.20;;
19089;SDS011;9677;50.656;13.064;2023-06-14T14:28:11;9.17;;;8.37;;
19089;SDS011;9677;50.656;13.064;2023-06-14T14:30:43;9.23;;;8.33;;
19089;SDS011;9677;50.656;13.064;2023-06-14T14:33:12;8.90;;;8.10;;
19089;SDS011;9677;50.656;13.064;2023-06-14T14:35:42;9.30;;;8.47;;
19089;SDS011;9677;50.656;13.064;2023-06-14T14:38:12;9.30;;;8.50;;
19089;SDS011;9677;50.656;13.064;2023-06-14T14:40:40;9.10;;;8.23;;
19089;SDS011;9677;50.656;13.064;2023-06-14T14:43:08;8.90;;;8.10;;
19089;SDS011;9677;50.656;13.064;2023-06-14T14:45:37;9.00;;;8.20;;
19089;SDS011;9677;50.656;13.064;2023-06-14T14:48:06;9.20;;;8.37;;
19089;SDS011;9677;50.656;13.064;2023-06-14T14:50:34;9.40;;;8.50;;
19089;SDS011;9677;50.656;13.064;2023-06-14T14:53:02;9.07;;;8.27;;
19089;SDS011;9677;50.656;13.064;2023-06-14T14:55:32;9.37;;;8.50;;
19089;SDS011;9677;50.656;13.064;2023-06-14T14:58:02;9.40;;;8.50;;
19089;SDS011;9677;50.656;13.064;2023-06-14T15:00:30;9.20;;;8.40;;
19089;SDS011;9677;50.656;13.064;2023-06-14T15:02:59;10.80;;;8.63;;
19089;SDS011;9677;50.656;13.064;2023-06-14T15:05:28;9.27;;;8.37;;